Time;durP1;ratioP1;P1;durP2;ratioP2;P2;SDS_P1;SDS_P2;PMS_P1;PMS_P2;Temp;Humidity;BMP_temperature;BMP_pressure;BME280_temperature;BME280_humidity;BME280_pressure;Samples;Min_cycle;Max_cycle;Signal;HPM_P1;HPM_P2
2021/05/25 00:00:45;;;;;;;;;;;;;;;19.86;56.19;100249.97;5072713;28;19988;-38
2021/05/25 00:03:10;;;;;;;;;;;;;;;19.75;56.55;100251.75;5073395;28;20531;-38
2021/05/25 00:05:36;;;;;;;;;;;;;;;19.95;56.17;100256.53;5073599;28;19912;-37
2021/05/25 00:08:01;;;;;;;;;;;;;;;20.02;55.94;100250.97;5073807;28;20296;-37
2021/05/25 00:10:27;;;;;;;;;;;;;;;20.05;55.85;100250.47;5073597;28;19991;-37
2021/05/25 00:12:52;;;;;;;;;;;;;;;20.30;55.22;100256.13;5073982;28;20326;-37
2021/05/25 00:15:19;;;;;;;;;;;;;;;20.28;55.27;100246.63;5088841;28;19974;-37
2021/05/25 00:17:44;;;;;;;;;;;;;;;19.95;56.07;100244.94;5073679;28;19920;-37
2021/05/25 00:20:10;;;;;;;;;;;;;;;19.92;56.51;100247.06;5073221;28;19924;-37
2021/05/25 00:22:36;;;;;;;;;;;;;;;19.73;57.13;100245.78;5083155;28;19916;-37
2021/05/25 00:25:01;;;;;;;;;;;;;;;19.65;57.17;100247.00;5112637;28;19915;-37
2021/05/25 00:27:26;;;;;;;;;;;;;;;19.68;57.23;100248.38;5113956;28;19911;-37
2021/05/25 00:29:51;;;;;;;;;;;;;;;19.62;57.30;100236.69;5095352;28;20319;-37
2021/05/25 00:32:17;;;;;;;;;;;;;;;19.39;57.92;100235.06;5113943;28;20020;-37
2021/05/25 00:34:42;;;;;;;;;;;;;;;19.38;58.37;100236.16;5113960;28;19912;-37
2021/05/25 00:37:07;;;;;;;;;;;;;;;19.38;58.21;100240.69;5113649;28;19911;-38
2021/05/25 00:39:33;;;;;;;;;;;;;;;19.54;57.69;100239.84;5113602;28;19955;-37
2021/05/25 00:41:58;;;;;;;;;;;;;;;19.38;58.54;100238.00;5113872;28;19953;-38
2021/05/25 00:44:23;;;;;;;;;;;;;;;19.37;58.29;100237.19;5113586;28;20348;-37
2021/05/25 00:46:48;;;;;;;;;;;;;;;19.61;57.95;100245.03;5113755;28;19931;-38
2021/05/25 00:49:14;;;;;;;;;;;;;;;19.79;57.47;100242.06;5113704;28;19919;-38
2021/05/25 00:51:39;;;;;;;;;;;;;;;19.87;56.93;100238.91;5094646;28;20391;-38
2021/05/25 00:54:04;;;;;;;;;;;;;;;19.79;57.21;100231.25;5093330;28;19980;-38
2021/05/25 00:56:30;;;;;;;;;;;;;;;19.52;58.02;100236.59;5093166;28;20399;-37
2021/05/25 00:58:55;;;;;;;;;;;;;;;19.55;58.07;100230.66;5092836;28;19912;-37
2021/05/25 01:01:20;;;;;;;;;;;;;;;19.90;57.03;100235.72;5092998;28;20003;-38
2021/05/25 01:03:46;;;;;;;;;;;;;;;19.78;57.12;100224.25;5093135;28;19912;-37
2021/05/25 01:06:11;;;;;;;;;;;;;;;20.15;56.07;100222.72;5092781;28;19912;-38
2021/05/25 01:08:38;;;;;;;;;;;;;;;20.13;56.44;100222.97;5092831;28;19912;-38
2021/05/25 01:11:07;;;;;;;;;;;;;;;19.87;56.76;100227.28;5092477;28;20022;-38
2021/05/25 01:13:45;;;;;;;;;;;;;;;20.13;56.36;100225.69;5092077;28;20377;-37
2021/05/25 01:16:10;;;;;;;;;;;;;;;20.26;55.69;100211.75;5092595;28;19919;-38
2021/05/25 01:18:36;;;;;;;;;;;;;;;20.20;55.84;100212.78;5092492;28;19912;-37
2021/05/25 01:21:01;;;;;;;;;;;;;;;20.12;56.08;100213.22;5092430;28;20002;-37
2021/05/25 01:23:27;;;;;;;;;;;;;;;19.64;57.44;100214.84;5092437;28;20303;-37
2021/05/25 01:25:52;;;;;;;;;;;;;;;19.64;57.55;100212.97;5092438;28;19977;-37
2021/05/25 01:28:19;;;;;;;;;;;;;;;19.46;58.12;100214.09;5092504;28;19950;-37
2021/05/25 01:30:46;;;;;;;;;;;;;;;19.45;58.14;100209.75;5091418;28;20345;-37
2021/05/25 01:33:12;;;;;;;;;;;;;;;19.58;57.90;100208.56;5093094;28;19919;-38
2021/05/25 01:35:37;;;;;;;;;;;;;;;19.28;58.65;100203.59;5093332;28;19912;-38
2021/05/25 01:38:03;;;;;;;;;;;;;;;19.35;58.54;100215.03;5092502;28;19998;-37
2021/05/25 01:40:28;;;;;;;;;;;;;;;19.47;58.28;100206.81;5092401;28;19916;-38
2021/05/25 01:42:54;;;;;;;;;;;;;;;19.27;58.69;100205.50;5092371;28;19923;-37
2021/05/25 01:45:21;;;;;;;;;;;;;;;19.23;58.84;100204.38;5092866;28;19920;-38
2021/05/25 01:47:46;;;;;;;;;;;;;;;19.36;58.64;100202.34;5092555;28;20023;-37
2021/05/25 01:50:12;;;;;;;;;;;;;;;19.17;59.01;100204.53;5092529;28;20038;-38
2021/05/25 01:53:02;;;;;;;;;;;;;;;19.19;59.47;100205.09;5092451;28;20380;-37
2021/05/25 01:55:41;;;;;;;;;;;;;;;19.27;59.06;100210.09;5092582;28;19944;-38
2021/05/25 01:58:15;;;;;;;;;;;;;;;19.10;59.35;100207.44;5092309;28;19947;-38
2021/05/25 02:00:44;;;;;;;;;;;;;;;18.88;60.01;100197.38;5092193;28;20390;-38
2021/05/25 02:03:09;;;;;;;;;;;;;;;19.32;58.71;100196.63;5092168;28;20486;-38
2021/05/25 02:05:35;;;;;;;;;;;;;;;19.53;58.37;100201.25;5092161;28;19915;-38
2021/05/25 02:08:00;;;;;;;;;;;;;;;19.58;57.91;100203.19;5092356;28;19924;-38
2021/05/25 02:10:32;;;;;;;;;;;;;;;19.86;57.01;100194.09;5092187;28;19973;-38
2021/05/25 02:12:59;;;;;;;;;;;;;;;19.26;58.88;100203.84;5092046;28;19916;-37
2021/05/25 02:15:24;;;;;;;;;;;;;;;19.02;59.23;100192.50;5091899;28;19916;-37
2021/05/25 02:17:50;;;;;;;;;;;;;;;19.07;59.40;100197.13;5091993;28;19912;-38
2021/05/25 02:20:15;;;;;;;;;;;;;;;19.34;58.56;100203.44;5092108;28;19970;-38
2021/05/25 02:22:40;;;;;;;;;;;;;;;19.29;58.95;100210.66;5091951;28;19912;-37
2021/05/25 02:25:06;;;;;;;;;;;;;;;19.35;58.49;100209.66;5091433;28;19919;-37
2021/05/25 02:27:31;;;;;;;;;;;;;;;19.58;57.83;100210.47;5091918;28;20048;-38
2021/05/25 02:29:57;;;;;;;;;;;;;;;19.64;57.66;100207.56;5091989;28;19912;-38
2021/05/25 02:32:22;;;;;;;;;;;;;;;19.65;57.62;100205.69;5091831;28;19916;-38
2021/05/25 02:34:47;;;;;;;;;;;;;;;19.80;57.24;100205.91;5091914;28;19912;-39
2021/05/25 02:37:12;;;;;;;;;;;;;;;19.58;57.75;100196.97;5091777;28;19912;-37
2021/05/25 02:39:38;;;;;;;;;;;;;;;19.65;57.77;100194.91;5091644;28;19923;-37
2021/05/25 02:42:04;;;;;;;;;;;;;;;19.56;57.94;100193.72;5091664;28;20348;-37
2021/05/25 02:44:29;;;;;;;;;;;;;;;19.20;58.97;100185.16;5091512;28;19916;-37
2021/05/25 02:46:54;;;;;;;;;;;;;;;18.89;60.26;100185.56;5091691;28;19958;-37
2021/05/25 02:49:19;;;;;;;;;;;;;;;18.81;59.92;100163.59;5091614;28;19912;-37
2021/05/25 02:51:45;;;;;;;;;;;;;;;19.12;59.50;100192.63;5091771;28;19923;-37
2021/05/25 02:54:10;;;;;;;;;;;;;;;19.31;58.76;100190.44;5091545;28;19918;-37
2021/05/25 02:56:35;;;;;;;;;;;;;;;19.18;59.07;100190.81;5090143;28;19916;-38
2021/05/25 02:59:01;;;;;;;;;;;;;;;19.00;60.09;100197.31;5091565;28;19916;-38
2021/05/25 03:01:26;;;;;;;;;;;;;;;19.24;59.05;100202.47;5091244;28;20361;-38
2021/05/25 03:03:51;;;;;;;;;;;;;;;19.21;59.05;100198.41;5091495;28;20360;-38
2021/05/25 03:06:16;;;;;;;;;;;;;;;19.30;58.62;100213.06;5091683;28;19955;-37
2021/05/25 03:08:42;;;;;;;;;;;;;;;19.32;58.54;100204.75;5091389;28;19912;-37
2021/05/25 03:11:07;;;;;;;;;;;;;;;19.53;57.98;100217.44;5091626;28;19912;-38
2021/05/25 03:13:33;;;;;;;;;;;;;;;19.62;57.78;100231.28;5091120;28;19924;-38
2021/05/25 03:15:58;;;;;;;;;;;;;;;19.75;57.53;100230.13;5091345;28;19928;-38
2021/05/25 03:18:23;;;;;;;;;;;;;;;19.66;57.69;100223.50;5091527;28;19923;-38
2021/05/25 03:20:49;;;;;;;;;;;;;;;19.19;59.29;100229.38;5091431;28;20010;-38
2021/05/25 03:23:15;;;;;;;;;;;;;;;19.52;57.94;100232.00;5101208;28;19919;-37
2021/05/25 03:25:41;;;;;;;;;;;;;;;19.38;58.32;100236.16;5111243;28;19916;-38
2021/05/25 03:28:08;;;;;;;;;;;;;;;19.73;57.77;100243.06;5110868;28;19916;-38
2021/05/25 03:30:33;;;;;;;;;;;;;;;19.65;57.88;100240.78;5110893;28;19923;-37
2021/05/25 03:32:58;;;;;;;;;;;;;;;19.89;57.34;100239.47;5111045;28;19912;-38
2021/05/25 03:35:24;;;;;;;;;;;;;;;20.05;56.67;100240.47;5111484;28;19911;-38
2021/05/25 03:37:49;;;;;;;;;;;;;;;20.02;56.79;100234.75;5114718;28;20411;-38
2021/05/25 03:40:15;;;;;;;;;;;;;;;20.23;56.07;100230.38;5113958;28;19923;-36
2021/05/25 03:42:43;;;;;;;;;;;;;;;19.85;57.15;100235.66;5113826;28;19990;-37
2021/05/25 03:45:08;;;;;;;;;;;;;;;19.82;57.24;100235.31;5114342;28;19919;-37
2021/05/25 03:47:33;;;;;;;;;;;;;;;19.37;58.91;100237.19;5114348;28;19912;-38
2021/05/25 03:50:08;;;;;;;;;;;;;;;19.65;57.72;100230.81;5114495;28;19916;-39
2021/05/25 03:52:37;;;;;;;;;;;;;;;19.79;57.53;100223.16;5113198;28;19911;-38
2021/05/25 03:55:04;;;;;;;;;;;;;;;19.87;57.55;100222.69;5114667;28;19922;-38
2021/05/25 03:59:57;;;;;;;;;;;;;;;20.23;56.27;100223.06;5114330;28;19963;-38
2021/05/25 04:02:23;;;;;;;;;;;;;;;20.46;55.76;100218.41;5114308;28;19912;-38
2021/05/25 04:04:48;;;;;;;;;;;;;;;20.54;55.41;100219.81;5114196;28;19919;-37
2021/05/25 04:07:13;;;;;;;;;;;;;;;20.96;54.03;100219.06;5114295;28;19916;-38
2021/05/25 04:09:39;;;;;;;;;;;;;;;20.64;54.67;100233.47;5114215;28;19995;-38
2021/05/25 04:12:04;;;;;;;;;;;;;;;21.01;54.73;100225.34;5114265;28;19918;-38
2021/05/25 04:14:29;;;;;;;;;;;;;;;21.44;52.59;100238.88;5113545;28;20372;-38
2021/05/25 04:16:56;;;;;;;;;;;;;;;20.95;53.75;100234.50;5114043;28;19912;-39
2021/05/25 04:19:21;;;;;;;;;;;;;;;21.11;53.63;100238.09;5111025;28;19916;-37
2021/05/25 04:21:47;;;;;;;;;;;;;;;21.20;53.43;100241.16;5081908;28;19920;-52
2021/05/25 04:24:12;;;;;;;;;;;;;;;21.21;53.21;100242.75;5110132;28;19986;-49
2021/05/25 04:26:38;;;;;;;;;;;;;;;21.00;54.74;100242.66;5113554;28;20380;-52
2021/05/25 04:29:03;;;;;;;;;;;;;;;21.59;52.48;100246.22;5113125;28;19919;-51
2021/05/25 04:31:28;;;;;;;;;;;;;;;21.88;51.61;100243.13;5113854;28;19984;-49
2021/05/25 04:33:54;;;;;;;;;;;;;;;21.75;51.92;100239.81;5113584;28;19911;-49
2021/05/25 04:36:19;;;;;;;;;;;;;;;21.78;51.44;100246.56;5113042;28;20007;-51
2021/05/25 04:38:44;;;;;;;;;;;;;;;21.64;51.57;100243.56;5113271;28;19912;-52
2021/05/25 04:41:10;;;;;;;;;;;;;;;22.20;50.34;100248.31;5113073;28;19916;-49
2021/05/25 04:43:35;;;;;;;;;;;;;;;22.22;50.71;100238.84;5113327;28;19916;-50
2021/05/25 04:46:00;;;;;;;;;;;;;;;22.39;50.31;100232.38;5091940;28;20007;-51
2021/05/25 04:48:26;;;;;;;;;;;;;;;22.22;50.28;100232.63;5090703;28;20011;-51
2021/05/25 04:50:51;;;;;;;;;;;;;;;22.22;50.27;100233.44;5091626;28;19912;-44
2021/05/25 04:53:16;;;;;;;;;;;;;;;22.70;49.12;100241.34;5092900;28;20301;-39
2021/05/25 04:55:42;;;;;;;;;;;;;;;22.69;48.83;100238.91;5093195;28;19912;-38
2021/05/25 04:58:07;;;;;;;;;;;;;;;23.03;48.13;100241.88;5093110;28;20409;-36
2021/05/25 05:00:32;;;;;;;;;;;;;;;22.99;48.44;100233.44;5092838;28;20366;-38
2021/05/25 05:02:58;;;;;;;;;;;;;;;22.63;49.07;100238.88;5092687;28;20405;-35
2021/05/25 05:05:23;;;;;;;;;;;;;;;22.65;49.16;100244.84;5092585;28;20327;-52
2021/05/25 05:07:49;;;;;;;;;;;;;;;21.94;51.20;100242.84;5089905;28;20273;-38
2021/05/25 05:10:15;;;;;;;;;;;;;;;22.35;50.16;100258.41;5092452;28;20395;-39
2021/05/25 05:12:40;;;;;;;;;;;;;;;22.27;49.98;100240.78;5092837;28;19923;-37
2021/05/25 05:15:06;;;;;;;;;;;;;;;22.78;48.90;100238.06;5092141;28;20396;-49
2021/05/25 05:17:31;;;;;;;;;;;;;;;23.24;49.09;100248.06;5092419;28;20346;-35
2021/05/25 05:19:57;;;;;;;;;;;;;;;23.19;48.04;100245.38;5092341;28;19923;-52
2021/05/25 05:22:22;;;;;;;;;;;;;;;23.39;47.39;100248.03;5092810;28;19922;-53
2021/05/25 05:24:48;;;;;;;;;;;;;;;23.78;46.71;100246.53;5091946;28;19912;-50
2021/05/25 05:27:14;;;;;;;;;;;;;;;23.69;46.40;100256.34;5091693;28;19912;-51
2021/05/25 05:29:39;;;;;;;;;;;;;;;23.38;47.23;100232.00;5092096;28;19912;-51
2021/05/25 05:32:04;;;;;;;;;;;;;;;23.56;46.44;100234.13;5092061;28;19912;-50
2021/05/25 05:34:30;;;;;;;;;;;;;;;22.53;49.26;100240.81;5092276;28;19916;-37
2021/05/25 05:36:55;;;;;;;;;;;;;;;23.25;48.18;100243.44;5091909;28;19924;-37
2021/05/25 05:39:20;;;;;;;;;;;;;;;23.61;46.99;100231.38;5091668;28;20311;-49
2021/05/25 05:41:46;;;;;;;;;;;;;;;23.25;47.40;100254.31;5089631;28;20410;-37
2021/05/25 05:44:12;;;;;;;;;;;;;;;22.96;47.88;100235.88;5085212;28;19923;-38
2021/05/25 05:46:37;;;;;;;;;;;;;;;23.13;47.87;100244.59;5091203;28;19919;-37
2021/05/25 05:49:02;;;;;;;;;;;;;;;23.86;45.94;100245.97;5091614;28;20000;-37
2021/05/25 05:51:30;;;;;;;;;;;;;;;24.04;45.78;100241.78;5091395;28;20257;-37
2021/05/25 05:53:55;;;;;;;;;;;;;;;23.24;47.25;100258.94;5090911;28;20359;-37
2021/05/25 05:56:21;;;;;;;;;;;;;;;23.20;47.07;100252.44;5091026;28;19919;-38
2021/05/25 05:58:46;;;;;;;;;;;;;;;23.70;46.91;100258.75;5090898;28;19938;-38
2021/05/25 06:01:12;;;;;;;;;;;;;;;23.66;46.13;100257.69;5091155;28;19923;-38
2021/05/25 06:03:38;;;;;;;;;;;;;;;22.86;49.13;100247.56;5090915;28;19916;-37
2021/05/25 06:06:03;;;;;;;;;;;;;;;23.13;48.12;100247.28;5090649;28;19912;-37
2021/05/25 06:08:29;;;;;;;;;;;;;;;22.40;50.18;100253.78;5090909;28;19985;-38
2021/05/25 06:10:54;;;;;;;;;;;;;;;22.95;48.81;100254.06;5091079;28;20362;-50
2021/05/25 06:13:20;;;;;;;;;;;;;;;22.71;49.29;100253.81;5089890;28;20358;-50
2021/05/25 06:15:45;;;;;;;;;;;;;;;23.51;47.46;100264.00;5086812;28;20302;-50
2021/05/25 06:18:10;;;;;;;;;;;;;;;24.09;46.13;100257.25;5089461;28;19912;-50
2021/05/25 06:20:36;;;;;;;;;;;;;;;24.08;46.18;100259.16;5089420;28;20369;-50
2021/05/25 06:23:01;;;;;;;;;;;;;;;24.32;45.59;100253.84;5098675;28;19912;-49
2021/05/25 06:25:27;;;;;;;;;;;;;;;25.29;43.60;100256.84;5109306;28;19918;-52
2021/05/25 06:27:53;;;;;;;;;;;;;;;25.92;42.03;100258.56;5111023;28;20148;-48
2021/05/25 06:30:19;;;;;;;;;;;;;;;25.75;42.49;100254.38;5110457;28;20366;-49
2021/05/25 06:32:44;;;;;;;;;;;;;;;26.33;41.14;100253.31;5110956;28;19911;-49
2021/05/25 06:35:10;;;;;;;;;;;;;;;25.93;41.93;100254.72;5105684;28;19912;-49
2021/05/25 06:37:35;;;;;;;;;;;;;;;26.11;41.27;100240.28;5089089;28;19939;-48
2021/05/25 06:40:01;;;;;;;;;;;;;;;27.18;39.39;100239.59;5089230;28;19927;-49
2021/05/25 06:42:26;;;;;;;;;;;;;;;27.04;39.43;100239.59;5090159;28;19916;-50
2021/05/25 06:44:51;;;;;;;;;;;;;;;27.45;38.85;100243.47;5089978;28;19989;-52
2021/05/25 06:47:16;;;;;;;;;;;;;;;27.72;37.98;100237.19;5089508;28;19924;-49
2021/05/25 06:49:42;;;;;;;;;;;;;;;27.55;38.64;100237.00;5088035;28;19922;-37
2021/05/25 06:52:07;;;;;;;;;;;;;;;27.28;38.60;100238.63;5089029;28;19942;-38
2021/05/25 06:54:33;;;;;;;;;;;;;;;27.72;38.05;100241.81;5089619;28;19912;-38
2021/05/25 06:56:58;;;;;;;;;;;;;;;28.23;37.76;100244.25;5090273;28;20121;-39
2021/05/25 06:59:24;;;;;;;;;;;;;;;28.43;36.57;100240.22;5089961;28;19969;-38
2021/05/25 07:01:49;;;;;;;;;;;;;;;27.57;38.22;100232.03;5089480;28;19973;-39
2021/05/25 07:04:14;;;;;;;;;;;;;;;27.83;38.13;100233.09;5089584;28;19912;-39
2021/05/25 07:06:39;;;;;;;;;;;;;;;28.60;37.24;100230.56;5089666;28;20401;-39
2021/05/25 07:09:05;;;;;;;;;;;;;;;29.28;34.95;100224.94;5089475;28;19913;-37
2021/05/25 07:11:30;;;;;;;;;;;;;;;29.14;35.16;100220.38;5091569;28;20010;-39
2021/05/25 07:13:57;;;;;;;;;;;;;;;28.70;36.12;100219.34;5093791;28;19935;-39
2021/05/25 07:16:22;;;;;;;;;;;;;;;28.19;37.22;100209.63;5093806;28;19976;-39
2021/05/25 07:18:48;;;;;;;;;;;;;;;28.01;37.65;100214.97;5093693;28;19912;-36
2021/05/25 07:21:13;;;;;;;;;;;;;;;28.73;36.59;100213.25;5093472;28;19923;-37
2021/05/25 07:23:38;;;;;;;;;;;;;;;28.39;36.73;100205.59;5093147;28;19923;-38
2021/05/25 07:26:04;;;;;;;;;;;;;;;28.72;36.64;100217.09;5093071;28;19919;-39
2021/05/25 07:28:29;;;;;;;;;;;;;;;29.00;35.63;100214.16;5093028;28;19919;-38
2021/05/25 07:30:54;;;;;;;;;;;;;;;28.72;36.54;100206.13;5093001;28;19969;-38
2021/05/25 07:33:20;;;;;;;;;;;;;;;28.88;35.53;100202.97;5092179;28;19912;-37
2021/05/25 07:35:45;;;;;;;;;;;;;;;29.22;35.99;100207.81;5093296;28;19963;-38
2021/05/25 07:38:10;;;;;;;;;;;;;;;29.44;35.22;100198.72;5093213;28;20382;-39
2021/05/25 07:40:36;;;;;;;;;;;;;;;29.43;34.69;100189.69;5093426;28;19922;-37
2021/05/25 07:43:01;;;;;;;;;;;;;;;30.12;33.98;100198.28;5093252;28;19912;-38
2021/05/25 07:45:26;;;;;;;;;;;;;;;30.08;34.08;100198.13;5092899;28;20470;-38
2021/05/25 07:47:52;;;;;;;;;;;;;;;30.09;33.73;100187.97;5093076;28;20284;-38
2021/05/25 07:50:17;;;;;;;;;;;;;;;29.35;34.79;100184.97;5093011;28;19916;-37
2021/05/25 07:52:43;;;;;;;;;;;;;;;30.31;33.48;100184.22;5092876;28;20112;-38
2021/05/25 07:55:09;;;;;;;;;;;;;;;29.19;34.73;100181.88;5091481;28;20438;-38
2021/05/25 07:57:34;;;;;;;;;;;;;;;28.88;35.55;100179.13;5092932;28;19924;-39
2021/05/25 07:59:59;;;;;;;;;;;;;;;27.79;37.04;100184.81;5092995;28;19965;-38
2021/05/25 08:02:25;;;;;;;;;;;;;;;28.05;37.27;100174.94;5092514;28;20348;-38
2021/05/25 08:04:50;;;;;;;;;;;;;;;28.25;36.69;100181.84;5092864;28;19913;-38
2021/05/25 08:07:15;;;;;;;;;;;;;;;29.35;34.74;100182.22;5092715;28;20041;-39
2021/05/25 08:09:41;;;;;;;;;;;;;;;29.99;33.83;100178.94;5092694;28;20316;-39
2021/05/25 08:12:06;;;;;;;;;;;;;;;29.23;34.70;100188.31;5092479;28;19928;-39
2021/05/25 08:14:31;;;;;;;;;;;;;;;29.07;35.27;100186.31;5091073;28;20293;-38
2021/05/25 08:17:05;;;;;;;;;;;;;;;28.98;35.45;100175.34;5092612;28;19974;-36
2021/05/25 08:19:32;;;;;;;;;;;;;;;29.97;34.75;100180.41;5092503;28;19962;-38
2021/05/25 08:21:57;;;;;;;;;;;;;;;30.98;32.72;100180.06;5091811;28;19916;-39
2021/05/25 08:24:22;;;;;;;;;;;;;;;29.36;34.64;100183.03;5092158;28;19922;-38
2021/05/25 08:26:47;;;;;;;;;;;;;;;28.79;35.83;100190.06;5092268;28;20361;-38
2021/05/25 08:29:13;;;;;;;;;;;;;;;28.67;36.27;100189.84;5092295;28;19956;-38
2021/05/25 08:31:38;;;;;;;;;;;;;;;29.99;33.54;100172.66;5092624;28;19916;-39
2021/05/25 08:34:03;;;;;;;;;;;;;;;30.18;33.50;100173.13;5092548;28;20421;-39
2021/05/25 08:36:29;;;;;;;;;;;;;;;29.87;34.38;100178.75;5091814;28;19948;-39
2021/05/25 08:38:55;;;;;;;;;;;;;;;29.06;35.37;100174.56;5091874;28;20345;-39
2021/05/25 08:41:20;;;;;;;;;;;;;;;28.37;36.43;100175.81;5091467;28;20007;-38
2021/05/25 08:43:46;;;;;;;;;;;;;;;28.76;36.33;100171.53;5090552;28;19931;-39
2021/05/25 08:46:11;;;;;;;;;;;;;;;29.86;34.70;100168.94;5092586;28;19951;-38
2021/05/25 08:48:38;;;;;;;;;;;;;;;30.53;33.85;100162.06;5093123;28;20004;-38
2021/05/25 08:51:04;;;;;;;;;;;;;;;30.69;32.89;100169.78;5092862;28;19912;-37
2021/05/25 08:53:29;;;;;;;;;;;;;;;29.84;34.33;100168.47;5092834;28;20458;-38
2021/05/25 08:55:55;;;;;;;;;;;;;;;29.78;34.77;100164.28;5092957;28;19919;-38
2021/05/25 08:58:20;;;;;;;;;;;;;;;30.27;34.00;100153.88;5092709;28;19912;-38
2021/05/25 09:00:46;;;;;;;;;;;;;;;31.24;32.13;100159.84;5092284;28;20419;-39
2021/05/25 09:03:14;;;;;;;;;;;;;;;30.65;32.83;100155.09;5092667;28;19912;-38
2021/05/25 09:05:39;;;;;;;;;;;;;;;30.40;33.53;100155.66;5092401;28;19916;-38
2021/05/25 09:08:04;;;;;;;;;;;;;;;29.75;34.23;100149.25;5090859;28;19996;-38
2021/05/25 09:10:42;;;;;;;;;;;;;;;29.06;36.05;100141.69;5092694;28;19951;-39
2021/05/25 09:13:11;;;;;;;;;;;;;;;29.30;34.89;100135.81;5091862;28;19913;-38
2021/05/25 09:15:55;;;;;;;;;;;;;;;30.46;33.56;100131.56;5092440;28;19969;-39
2021/05/25 09:18:25;;;;;;;;;;;;;;;30.44;34.64;100133.03;5092261;28;20312;-39
2021/05/25 09:21:00;;;;;;;;;;;;;;;31.32;32.72;100134.25;5092155;28;19923;-39
2021/05/25 09:23:32;;;;;;;;;;;;;;;29.20;35.81;100123.19;5104332;28;19912;-39
2021/05/25 09:26:04;;;;;;;;;;;;;;;29.08;36.60;100127.66;5112195;28;20391;-39
2021/05/25 09:28:30;;;;;;;;;;;;;;;29.00;36.46;100124.59;5112231;28;19911;-38
2021/05/25 09:30:55;;;;;;;;;;;;;;;29.29;35.66;100111.47;5112201;28;20003;-39
2021/05/25 09:33:21;;;;;;;;;;;;;;;30.17;34.93;100108.38;5110681;28;20244;-39
2021/05/25 09:35:48;;;;;;;;;;;;;;;31.13;32.66;100105.28;5110779;28;19922;-38
2021/05/25 09:38:13;;;;;;;;;;;;;;;32.06;31.38;100108.00;5105445;28;19934;-39
2021/05/25 09:40:48;;;;;;;;;;;;;;;32.89;30.24;100096.97;5091460;28;19916;-39
2021/05/25 09:43:14;;;;;;;;;;;;;;;32.97;29.86;100109.00;5091481;28;20371;-38
2021/05/25 09:45:55;;;;;;;;;;;;;;;33.21;29.91;100109.00;5091452;28;19919;-38
2021/05/25 09:48:27;;;;;;;;;;;;;;;33.53;29.83;100100.06;5091871;28;19918;-38
2021/05/25 09:50:54;;;;;;;;;;;;;;;33.36;30.00;100101.97;5091623;28;19912;-39
2021/05/25 09:53:28;;;;;;;;;;;;;;;32.39;31.35;100095.31;5091515;28;20288;-38
2021/05/25 09:55:53;;;;;;;;;;;;;;;32.85;31.22;100087.78;5091655;28;19934;-39
2021/05/25 09:58:19;;;;;;;;;;;;;;;32.79;31.09;100084.47;5091396;28;20289;-38
2021/05/25 10:00:46;;;;;;;;;;;;;;;33.06;31.15;100082.94;5091318;28;19916;-39
2021/05/25 10:03:21;;;;;;;;;;;;;;;32.67;30.75;100074.25;5091165;28;19913;-38
2021/05/25 10:05:48;;;;;;;;;;;;;;;32.80;31.14;100079.75;5091278;28;19939;-39
2021/05/25 10:08:13;;;;;;;;;;;;;;;32.73;30.53;100083.88;5091515;28;19962;-39
2021/05/25 10:10:39;;;;;;;;;;;;;;;32.40;31.76;100077.66;5091751;28;19965;-39
2021/05/25 10:13:04;;;;;;;;;;;;;;;32.29;31.41;100069.00;5091857;28;20349;-38
2021/05/25 10:15:29;;;;;;;;;;;;;;;32.63;31.13;100056.78;5092000;28;19922;-39
2021/05/25 10:20:20;;;;;;;;;;;;;;;33.49;30.11;100058.59;5091470;28;20298;-51
2021/05/25 10:22:45;;;;;;;;;;;;;;;33.42;30.00;100044.63;5093672;28;19923;-48
2021/05/25 10:25:11;;;;;;;;;;;;;;;32.52;31.53;100053.69;5089673;28;19935;-37
2021/05/25 10:27:36;;;;;;;;;;;;;;;30.76;34.03;100052.78;5090996;28;20361;-38
2021/05/25 10:30:02;;;;;;;;;;;;;;;31.10;33.61;100047.44;5089342;28;19916;-39
2021/05/25 10:32:27;;;;;;;;;;;;;;;31.44;32.63;100042.81;5088855;28;19912;-39
2021/05/25 10:34:54;;;;;;;;;;;;;;;31.01;33.78;100035.69;5090110;28;20007;-39
2021/05/25 10:37:19;;;;;;;;;;;;;;;31.22;33.30;100038.47;5090479;28;19913;-39
2021/05/25 10:39:45;;;;;;;;;;;;;;;30.95;33.84;100037.84;5090267;28;19977;-38
2021/05/25 10:42:13;;;;;;;;;;;;;;;32.07;33.11;100037.22;5090434;28;20280;-38
2021/05/25 10:44:57;;;;;;;;;;;;;;;32.90;31.04;100015.88;5089925;28;19912;-39
2021/05/25 10:47:26;;;;;;;;;;;;;;;32.94;30.54;100019.59;5089823;28;19923;-40
2021/05/25 10:49:52;;;;;;;;;;;;;;;31.46;32.75;100013.88;5090107;28;19912;-39
2021/05/25 10:52:17;;;;;;;;;;;;;;;30.39;34.64;100013.25;5090328;28;19969;-38
2021/05/25 10:54:43;;;;;;;;;;;;;;;31.05;34.13;100017.41;5090240;28;19912;-40
2021/05/25 10:57:27;;;;;;;;;;;;;;;31.26;33.34;100003.66;5090386;28;19912;-39
2021/05/25 11:00:05;;;;;;;;;;;;;;;32.12;32.57;100004.78;5089915;28;19916;-39
2021/05/25 11:02:43;;;;;;;;;;;;;;;32.92;31.05;100005.34;5090022;28;19912;-39
2021/05/25 11:05:31;;;;;;;;;;;;;;;32.23;32.71;99999.63;5090231;28;19988;-39
2021/05/25 11:08:11;;;;;;;;;;;;;;;31.07;34.02;100010.47;5088230;28;19916;-39
2021/05/25 11:10:42;;;;;;;;;;;;;;;31.01;34.67;100011.78;5090472;28;19916;-39
2021/05/25 11:13:14;;;;;;;;;;;;;;;31.06;34.71;100005.28;5090504;28;20380;-39
2021/05/25 11:15:58;;;;;;;;;;;;;;;31.38;34.16;99993.53;5091587;28;19927;-39
2021/05/25 11:18:30;;;;;;;;;;;;;;;31.28;34.30;99993.97;5097552;28;19973;-39
2021/05/25 11:23:52;;;;;;;;;;;;;;;31.23;34.65;99991.41;5085392;28;19965;-38
2021/05/25 11:26:43;;;;;;;;;;;;;;;31.17;34.76;99996.28;5093896;28;19919;-39
2021/05/25 11:29:18;;;;;;;;;;;;;;;31.18;35.26;99986.91;5089272;28;19912;-37
2021/05/25 11:31:44;;;;;;;;;;;;;;;31.39;33.64;99986.06;5086869;28;19919;-39
2021/05/25 11:34:09;;;;;;;;;;;;;;;31.36;33.97;99984.03;5089142;28;20288;-39
2021/05/25 11:36:35;;;;;;;;;;;;;;;31.77;34.19;99976.81;5090440;28;19956;-39
2021/05/25 11:39:04;;;;;;;;;;;;;;;31.98;33.78;99978.69;5090355;28;19971;-39
2021/05/25 11:41:29;;;;;;;;;;;;;;;32.37;33.04;99979.19;5090162;28;19923;-39
2021/05/25 11:44:02;;;;;;;;;;;;;;;32.33;32.96;99985.41;5089607;28;19912;-39
2021/05/25 11:46:46;;;;;;;;;;;;;;;32.36;32.66;99985.88;5088703;28;19916;-38
2021/05/25 11:49:11;;;;;;;;;;;;;;;32.88;31.47;99987.88;5090219;28;19923;-38
2021/05/25 11:51:37;;;;;;;;;;;;;;;32.18;32.84;99993.53;5090017;28;19915;-39
2021/05/25 11:54:12;;;;;;;;;;;;;;;31.47;34.48;100001.75;5091339;28;19912;-39
2021/05/25 11:56:38;;;;;;;;;;;;;;;31.23;35.51;99993.34;5089436;28;20382;-38
2021/05/25 11:59:04;;;;;;;;;;;;;;;31.05;35.36;99978.94;5099243;28;19935;-39
2021/05/25 12:01:42;;;;;;;;;;;;;;;31.69;34.30;99962.03;5104892;28;19916;-38
2021/05/25 12:04:07;;;;;;;;;;;;;;;32.32;33.35;99961.78;5107869;28;19938;-39
2021/05/25 12:06:33;;;;;;;;;;;;;;;31.67;33.86;99967.06;5112731;28;20379;-39
2021/05/25 12:09:08;;;;;;;;;;;;;;;32.22;33.14;99962.25;5097741;28;19912;-39
2021/05/25 12:11:43;;;;;;;;;;;;;;;32.78;32.26;99967.13;5103948;28;19923;-39
2021/05/25 12:14:08;;;;;;;;;;;;;;;32.67;32.29;99968.75;5093191;28;19924;-39
2021/05/25 12:16:34;;;;;;;;;;;;;;;32.75;31.62;99951.31;5093931;28;19912;-39
2021/05/25 12:18:59;;;;;;;;;;;;;;;33.02;31.43;99954.44;5108546;28;19919;-38
2021/05/25 12:21:25;;;;;;;;;;;;;;;33.41;30.95;99955.56;5101220;28;20348;-39
2021/05/25 12:23:50;;;;;;;;;;;;;;;33.03;31.52;99967.84;5109398;28;19972;-38
2021/05/25 12:26:18;;;;;;;;;;;;;;;31.38;33.64;99949.53;5097510;28;20016;-39
2021/05/25 12:28:46;;;;;;;;;;;;;;;30.48;35.29;99931.66;5109450;28;19915;-38
2021/05/25 12:31:12;;;;;;;;;;;;;;;31.24;34.60;99910.53;5099263;28;19912;-38
2021/05/25 12:33:39;;;;;;;;;;;;;;;30.88;35.35;99913.91;5104232;28;19930;-38
2021/05/25 12:36:11;;;;;;;;;;;;;;;30.67;35.24;99917.47;5105312;28;20006;-39
2021/05/25 12:38:36;;;;;;;;;;;;;;;30.25;35.92;99920.13;5096065;28;19924;-39
2021/05/25 12:41:01;;;;;;;;;;;;;;;30.94;34.99;99918.91;5106481;28;19923;-39
2021/05/25 12:43:32;;;;;;;;;;;;;;;30.95;35.11;99925.19;5100833;28;19915;-38